sensor_id;sensor_type;location;lat;lon;timestamp;P1;durP1;ratioP1;P2;durP2;ratioP2
62523;SDS011;53689;56.878;60.672;2022-09-29T00:00:41;26.25;;;14.27;;
62523;SDS011;53689;56.878;60.672;2022-09-29T00:03:09;26.33;;;13.93;;
62523;SDS011;53689;56.878;60.672;2022-09-29T00:05:36;25.33;;;13.10;;
62523;SDS011;53689;56.878;60.672;2022-09-29T00:08:03;24.88;;;13.90;;
62523;SDS011;53689;56.878;60.672;2022-09-29T00:10:31;26.95;;;14.20;;
62523;SDS011;53689;56.878;60.672;2022-09-29T00:13:00;24.10;;;14.23;;
62523;SDS011;53689;56.878;60.672;2022-09-29T00:15:27;27.48;;;14.43;;
62523;SDS011;53689;56.878;60.672;2022-09-29T00:17:54;22.02;;;12.93;;
62523;SDS011;53689;56.878;60.672;2022-09-29T00:20:39;24.83;;;13.88;;
62523;SDS011;53689;56.878;60.672;2022-09-29T00:23:07;26.75;;;13.68;;
62523;SDS011;53689;56.878;60.672;2022-09-29T00:25:34;24.90;;;13.40;;
62523;SDS011;53689;56.878;60.672;2022-09-29T00:28:03;23.98;;;13.48;;
62523;SDS011;53689;56.878;60.672;2022-09-29T00:30:30;24.90;;;14.02;;
62523;SDS011;53689;56.878;60.672;2022-09-29T00:32:58;27.23;;;13.15;;
62523;SDS011;53689;56.878;60.672;2022-09-29T00:35:25;24.23;;;13.25;;
62523;SDS011;53689;56.878;60.672;2022-09-29T00:37:52;24.10;;;14.65;;
62523;SDS011;53689;56.878;60.672;2022-09-29T00:40:20;27.33;;;15.60;;
62523;SDS011;53689;56.878;60.672;2022-09-29T00:42:47;25.63;;;14.70;;
62523;SDS011;53689;56.878;60.672;2022-09-29T00:45:17;27.20;;;14.85;;
62523;SDS011;53689;56.878;60.672;2022-09-29T00:47:49;23.27;;;14.80;;
62523;SDS011;53689;56.878;60.672;2022-09-29T00:50:27;26.60;;;14.82;;
62523;SDS011;53689;56.878;60.672;2022-09-29T00:53:03;24.80;;;14.40;;
62523;SDS011;53689;56.878;60.672;2022-09-29T00:55:33;26.83;;;15.48;;
62523;SDS011;53689;56.878;60.672;2022-09-29T00:58:05;26.52;;;14.40;;
62523;SDS011;53689;56.878;60.672;2022-09-29T01:00:39;24.27;;;13.77;;
62523;SDS011;53689;56.878;60.672;2022-09-29T01:03:07;22.73;;;13.88;;
62523;SDS011;53689;56.878;60.672;2022-09-29T01:05:39;22.60;;;13.48;;
62523;SDS011;53689;56.878;60.672;2022-09-29T01:08:12;22.83;;;12.65;;
62523;SDS011;53689;56.878;60.672;2022-09-29T01:10:43;20.98;;;12.48;;
62523;SDS011;53689;56.878;60.672;2022-09-29T01:13:13;23.13;;;12.45;;
62523;SDS011;53689;56.878;60.672;2022-09-29T01:15:42;21.90;;;12.43;;
62523;SDS011;53689;56.878;60.672;2022-09-29T01:18:09;20.20;;;12.40;;
62523;SDS011;53689;56.878;60.672;2022-09-29T01:20:38;20.65;;;11.98;;
62523;SDS011;53689;56.878;60.672;2022-09-29T01:26:17;23.23;;;12.75;;
62523;SDS011;53689;56.878;60.672;2022-09-29T01:29:26;18.45;;;12.32;;
62523;SDS011;53689;56.878;60.672;2022-09-29T01:32:16;18.77;;;11.10;;
62523;SDS011;53689;56.878;60.672;2022-09-29T01:34:49;20.80;;;11.80;;
62523;SDS011;53689;56.878;60.672;2022-09-29T01:37:27;20.10;;;10.68;;
62523;SDS011;53689;56.878;60.672;2022-09-29T01:40:05;19.63;;;11.20;;
62523;SDS011;53689;56.878;60.672;2022-09-29T01:42:40;18.90;;;11.57;;
62523;SDS011;53689;56.878;60.672;2022-09-29T01:45:14;18.55;;;10.70;;
62523;SDS011;53689;56.878;60.672;2022-09-29T01:47:51;21.52;;;11.73;;
62523;SDS011;53689;56.878;60.672;2022-09-29T01:50:22;17.92;;;10.95;;
62523;SDS011;53689;56.878;60.672;2022-09-29T01:52:55;19.52;;;11.32;;
62523;SDS011;53689;56.878;60.672;2022-09-29T01:55:29;19.58;;;11.50;;
62523;SDS011;53689;56.878;60.672;2022-09-29T01:57:59;17.73;;;10.05;;
62523;SDS011;53689;56.878;60.672;2022-09-29T02:00:36;18.52;;;9.35;;
62523;SDS011;53689;56.878;60.672;2022-09-29T02:03:09;19.65;;;10.07;;
62523;SDS011;53689;56.878;60.672;2022-09-29T02:05:41;21.77;;;10.85;;
62523;SDS011;53689;56.878;60.672;2022-09-29T02:08:14;17.83;;;9.65;;
62523;SDS011;53689;56.878;60.672;2022-09-29T02:10:48;18.23;;;10.05;;
62523;SDS011;53689;56.878;60.672;2022-09-29T02:13:20;16.73;;;10.18;;
62523;SDS011;53689;56.878;60.672;2022-09-29T02:15:50;16.38;;;10.23;;
62523;SDS011;53689;56.878;60.672;2022-09-29T02:18:23;16.90;;;10.75;;
62523;SDS011;53689;56.878;60.672;2022-09-29T02:20:56;25.60;;;11.02;;
62523;SDS011;53689;56.878;60.672;2022-09-29T02:23:23;18.42;;;10.15;;
62523;SDS011;53689;56.878;60.672;2022-09-29T02:25:51;20.83;;;10.00;;
62523;SDS011;53689;56.878;60.672;2022-09-29T02:28:21;17.98;;;9.82;;
62523;SDS011;53689;56.878;60.672;2022-09-29T02:30:49;18.40;;;9.23;;
62523;SDS011;53689;56.878;60.672;2022-09-29T02:33:17;15.52;;;8.73;;
62523;SDS011;53689;56.878;60.672;2022-09-29T02:35:50;17.27;;;8.85;;
62523;SDS011;53689;56.878;60.672;2022-09-29T02:38:26;13.95;;;8.73;;
62523;SDS011;53689;56.878;60.672;2022-09-29T02:41:04;15.45;;;8.63;;
62523;SDS011;53689;56.878;60.672;2022-09-29T02:46:35;14.32;;;8.90;;
62523;SDS011;53689;56.878;60.672;2022-09-29T02:49:18;13.13;;;8.25;;
62523;SDS011;53689;56.878;60.672;2022-09-29T02:51:58;16.75;;;8.68;;
62523;SDS011;53689;56.878;60.672;2022-09-29T02:54:40;11.50;;;8.07;;
62523;SDS011;53689;56.878;60.672;2022-09-29T02:57:18;16.15;;;8.65;;
62523;SDS011;53689;56.878;60.672;2022-09-29T02:59:54;14.65;;;8.45;;
62523;SDS011;53689;56.878;60.672;2022-09-29T03:02:27;13.70;;;8.05;;
62523;SDS011;53689;56.878;60.672;2022-09-29T03:04:54;14.02;;;8.00;;
62523;SDS011;53689;56.878;60.672;2022-09-29T03:07:23;16.73;;;8.35;;
62523;SDS011;53689;56.878;60.672;2022-09-29T03:09:50;13.60;;;8.20;;
62523;SDS011;53689;56.878;60.672;2022-09-29T03:12:18;13.98;;;8.25;;
62523;SDS011;53689;56.878;60.672;2022-09-29T03:14:45;9.98;;;7.35;;
62523;SDS011;53689;56.878;60.672;2022-09-29T03:17:13;12.90;;;8.20;;
62523;SDS011;53689;56.878;60.672;2022-09-29T03:19:40;14.05;;;8.40;;
62523;SDS011;53689;56.878;60.672;2022-09-29T03:22:07;12.80;;;7.53;;
62523;SDS011;53689;56.878;60.672;2022-09-29T03:24:36;12.32;;;7.57;;
62523;SDS011;53689;56.878;60.672;2022-09-29T03:27:04;12.47;;;7.97;;
62523;SDS011;53689;56.878;60.672;2022-09-29T03:29:31;11.98;;;7.75;;
62523;SDS011;53689;56.878;60.672;2022-09-29T03:31:58;11.95;;;7.20;;
62523;SDS011;53689;56.878;60.672;2022-09-29T03:34:26;13.38;;;6.80;;
62523;SDS011;53689;56.878;60.672;2022-09-29T03:36:53;11.30;;;7.25;;
62523;SDS011;53689;56.878;60.672;2022-09-29T03:39:20;11.75;;;6.65;;
62523;SDS011;53689;56.878;60.672;2022-09-29T03:41:49;10.73;;;6.82;;
62523;SDS011;53689;56.878;60.672;2022-09-29T03:44:17;11.32;;;6.70;;
62523;SDS011;53689;56.878;60.672;2022-09-29T03:46:45;12.15;;;6.35;;
62523;SDS011;53689;56.878;60.672;2022-09-29T03:49:13;12.73;;;7.00;;
62523;SDS011;53689;56.878;60.672;2022-09-29T03:51:40;13.55;;;6.93;;
62523;SDS011;53689;56.878;60.672;2022-09-29T03:54:08;10.85;;;6.18;;
62523;SDS011;53689;56.878;60.672;2022-09-29T03:56:36;14.13;;;6.70;;
62523;SDS011;53689;56.878;60.672;2022-09-29T03:59:05;13.05;;;7.15;;
62523;SDS011;53689;56.878;60.672;2022-09-29T04:01:33;15.52;;;7.30;;
62523;SDS011;53689;56.878;60.672;2022-09-29T04:04:00;13.80;;;7.10;;
62523;SDS011;53689;56.878;60.672;2022-09-29T04:06:27;13.20;;;6.68;;
62523;SDS011;53689;56.878;60.672;2022-09-29T04:08:55;14.70;;;7.85;;
62523;SDS011;53689;56.878;60.672;2022-09-29T04:11:22;15.73;;;8.18;;
62523;SDS011;53689;56.878;60.672;2022-09-29T04:13:50;13.95;;;6.85;;
62523;SDS011;53689;56.878;60.672;2022-09-29T04:16:19;14.02;;;6.57;;
62523;SDS011;53689;56.878;60.672;2022-09-29T04:18:46;17.00;;;6.97;;
62523;SDS011;53689;56.878;60.672;2022-09-29T04:21:14;11.60;;;6.72;;
62523;SDS011;53689;56.878;60.672;2022-09-29T04:23:41;18.50;;;7.43;;
62523;SDS011;53689;56.878;60.672;2022-09-29T04:26:09;14.85;;;7.68;;
62523;SDS011;53689;56.878;60.672;2022-09-29T04:28:37;15.85;;;7.80;;
62523;SDS011;53689;56.878;60.672;2022-09-29T04:31:05;13.52;;;7.10;;
62523;SDS011;53689;56.878;60.672;2022-09-29T04:33:34;16.85;;;7.53;;
62523;SDS011;53689;56.878;60.672;2022-09-29T04:36:01;13.73;;;8.00;;
62523;SDS011;53689;56.878;60.672;2022-09-29T04:38:29;16.48;;;8.27;;
62523;SDS011;53689;56.878;60.672;2022-09-29T04:40:57;22.23;;;9.00;;
62523;SDS011;53689;56.878;60.672;2022-09-29T04:43:24;16.15;;;8.07;;
62523;SDS011;53689;56.878;60.672;2022-09-29T04:45:52;16.35;;;9.85;;
62523;SDS011;53689;56.878;60.672;2022-09-29T04:48:27;20.13;;;8.88;;
62523;SDS011;53689;56.878;60.672;2022-09-29T04:51:02;19.25;;;8.80;;
62523;SDS011;53689;56.878;60.672;2022-09-29T04:53:30;16.50;;;8.18;;
62523;SDS011;53689;56.878;60.672;2022-09-29T04:55:58;19.13;;;9.82;;
62523;SDS011;53689;56.878;60.672;2022-09-29T04:58:25;20.55;;;9.75;;
62523;SDS011;53689;56.878;60.672;2022-09-29T05:00:52;18.52;;;9.80;;
62523;SDS011;53689;56.878;60.672;2022-09-29T05:03:20;21.67;;;9.48;;
62523;SDS011;53689;56.878;60.672;2022-09-29T05:05:47;20.15;;;9.93;;
62523;SDS011;53689;56.878;60.672;2022-09-29T05:08:16;18.88;;;10.05;;
62523;SDS011;53689;56.878;60.672;2022-09-29T05:10:43;18.23;;;9.80;;
62523;SDS011;53689;56.878;60.672;2022-09-29T05:13:11;19.05;;;10.25;;
62523;SDS011;53689;56.878;60.672;2022-09-29T05:15:38;20.20;;;10.27;;
62523;SDS011;53689;56.878;60.672;2022-09-29T05:18:05;22.20;;;11.05;;
62523;SDS011;53689;56.878;60.672;2022-09-29T05:23:40;22.17;;;9.52;;
62523;SDS011;53689;56.878;60.672;2022-09-29T05:26:08;18.80;;;10.30;;
62523;SDS011;53689;56.878;60.672;2022-09-29T05:28:37;21.13;;;11.07;;
62523;SDS011;53689;56.878;60.672;2022-09-29T05:31:08;19.08;;;11.63;;
62523;SDS011;53689;56.878;60.672;2022-09-29T05:33:37;17.30;;;10.15;;
62523;SDS011;53689;56.878;60.672;2022-09-29T05:36:05;18.13;;;9.85;;
62523;SDS011;53689;56.878;60.672;2022-09-29T05:38:34;19.75;;;10.60;;
62523;SDS011;53689;56.878;60.672;2022-09-29T05:41:04;16.05;;;9.60;;
62523;SDS011;53689;56.878;60.672;2022-09-29T05:43:32;18.38;;;9.85;;
62523;SDS011;53689;56.878;60.672;2022-09-29T05:46:00;20.67;;;10.10;;
62523;SDS011;53689;56.878;60.672;2022-09-29T06:03:12;20.80;;;10.52;;
62523;SDS011;53689;56.878;60.672;2022-09-29T06:05:39;17.15;;;9.80;;
62523;SDS011;53689;56.878;60.672;2022-09-29T06:08:07;20.95;;;9.80;;
62523;SDS011;53689;56.878;60.672;2022-09-29T06:10:34;22.48;;;10.30;;
62523;SDS011;53689;56.878;60.672;2022-09-29T06:13:02;19.98;;;10.60;;
62523;SDS011;53689;56.878;60.672;2022-09-29T06:15:29;24.77;;;10.70;;
62523;SDS011;53689;56.878;60.672;2022-09-29T06:17:56;19.52;;;10.32;;
62523;SDS011;53689;56.878;60.672;2022-09-29T06:20:26;20.00;;;10.40;;
62523;SDS011;53689;56.878;60.672;2022-09-29T06:22:53;28.05;;;9.98;;
62523;SDS011;53689;56.878;60.672;2022-09-29T06:25:21;21.58;;;10.32;;
62523;SDS011;53689;56.878;60.672;2022-09-29T06:27:49;18.90;;;10.40;;
62523;SDS011;53689;56.878;60.672;2022-09-29T06:30:17;19.15;;;10.35;;
62523;SDS011;53689;56.878;60.672;2022-09-29T06:32:45;21.80;;;10.20;;
62523;SDS011;53689;56.878;60.672;2022-09-29T06:35:12;20.45;;;10.05;;
62523;SDS011;53689;56.878;60.672;2022-09-29T06:37:41;18.02;;;9.98;;
62523;SDS011;53689;56.878;60.672;2022-09-29T06:40:11;19.98;;;10.20;;
62523;SDS011;53689;56.878;60.672;2022-09-29T06:42:40;24.07;;;11.30;;
62523;SDS011;53689;56.878;60.672;2022-09-29T06:45:08;22.25;;;10.30;;
62523;SDS011;53689;56.878;60.672;2022-09-29T06:47:37;54.40;;;15.32;;
62523;SDS011;53689;56.878;60.672;2022-09-29T06:50:04;33.25;;;12.77;;
62523;SDS011;53689;56.878;60.672;2022-09-29T06:52:42;23.73;;;10.88;;
62523;SDS011;53689;56.878;60.672;2022-09-29T06:55:21;22.85;;;11.20;;
62523;SDS011;53689;56.878;60.672;2022-09-29T06:57:48;27.85;;;11.65;;
62523;SDS011;53689;56.878;60.672;2022-09-29T07:00:16;23.83;;;11.68;;
62523;SDS011;53689;56.878;60.672;2022-09-29T07:02:44;32.28;;;13.23;;
62523;SDS011;53689;56.878;60.672;2022-09-29T07:05:12;28.83;;;11.32;;
62523;SDS011;53689;56.878;60.672;2022-09-29T07:07:39;23.15;;;11.88;;
62523;SDS011;53689;56.878;60.672;2022-09-29T07:10:08;31.23;;;12.25;;
62523;SDS011;53689;56.878;60.672;2022-09-29T07:12:36;28.90;;;12.35;;
62523;SDS011;53689;56.878;60.672;2022-09-29T07:15:03;30.73;;;13.48;;
62523;SDS011;53689;56.878;60.672;2022-09-29T07:17:31;28.10;;;12.43;;
62523;SDS011;53689;56.878;60.672;2022-09-29T07:19:59;19.88;;;10.82;;
62523;SDS011;53689;56.878;60.672;2022-09-29T07:22:26;29.00;;;11.27;;
62523;SDS011;53689;56.878;60.672;2022-09-29T07:24:57;24.17;;;11.70;;
62523;SDS011;53689;56.878;60.672;2022-09-29T07:27:26;29.65;;;11.98;;
62523;SDS011;53689;56.878;60.672;2022-09-29T07:29:54;26.43;;;12.27;;
62523;SDS011;53689;56.878;60.672;2022-09-29T07:32:30;27.80;;;12.35;;
62523;SDS011;53689;56.878;60.672;2022-09-29T07:34:57;30.85;;;12.85;;
62523;SDS011;53689;56.878;60.672;2022-09-29T07:37:25;25.35;;;12.30;;
62523;SDS011;53689;56.878;60.672;2022-09-29T07:39:53;26.08;;;12.15;;
62523;SDS011;53689;56.878;60.672;2022-09-29T07:42:20;29.90;;;12.00;;
62523;SDS011;53689;56.878;60.672;2022-09-29T07:44:54;31.40;;;13.52;;
62523;SDS011;53689;56.878;60.672;2022-09-29T07:47:22;20.80;;;11.03;;
62523;SDS011;53689;56.878;60.672;2022-09-29T07:49:49;20.58;;;11.05;;
62523;SDS011;53689;56.878;60.672;2022-09-29T07:52:17;24.10;;;12.02;;
62523;SDS011;53689;56.878;60.672;2022-09-29T07:54:44;22.33;;;10.25;;
62523;SDS011;53689;56.878;60.672;2022-09-29T07:57:12;24.10;;;12.15;;
62523;SDS011;53689;56.878;60.672;2022-09-29T07:59:39;19.42;;;10.30;;
62523;SDS011;53689;56.878;60.672;2022-09-29T08:02:18;24.67;;;9.52;;
62523;SDS011;53689;56.878;60.672;2022-09-29T08:04:45;27.10;;;11.27;;
62523;SDS011;53689;56.878;60.672;2022-09-29T08:07:13;27.50;;;11.85;;
62523;SDS011;53689;56.878;60.672;2022-09-29T08:09:40;25.83;;;12.32;;
62523;SDS011;53689;56.878;60.672;2022-09-29T08:12:08;26.02;;;12.38;;
62523;SDS011;53689;56.878;60.672;2022-09-29T08:14:35;23.35;;;11.50;;
62523;SDS011;53689;56.878;60.672;2022-09-29T08:17:09;25.50;;;12.27;;
62523;SDS011;53689;56.878;60.672;2022-09-29T08:19:38;27.52;;;12.43;;
62523;SDS011;53689;56.878;60.672;2022-09-29T08:22:06;22.87;;;12.37;;
62523;SDS011;53689;56.878;60.672;2022-09-29T08:24:33;22.38;;;12.20;;
62523;SDS011;53689;56.878;60.672;2022-09-29T08:27:01;22.83;;;12.05;;
62523;SDS011;53689;56.878;60.672;2022-09-29T08:29:43;21.00;;;12.02;;
62523;SDS011;53689;56.878;60.672;2022-09-29T08:32:13;23.15;;;11.98;;
62523;SDS011;53689;56.878;60.672;2022-09-29T08:34:42;33.13;;;12.63;;
62523;SDS011;53689;56.878;60.672;2022-09-29T08:37:09;22.40;;;11.20;;
62523;SDS011;53689;56.878;60.672;2022-09-29T08:39:36;21.15;;;10.93;;
62523;SDS011;53689;56.878;60.672;2022-09-29T08:42:04;23.65;;;10.77;;
62523;SDS011;53689;56.878;60.672;2022-09-29T08:44:42;21.50;;;10.45;;
62523;SDS011;53689;56.878;60.672;2022-09-29T08:47:16;21.13;;;9.95;;
62523;SDS011;53689;56.878;60.672;2022-09-29T08:50:05;18.17;;;10.23;;
62523;SDS011;53689;56.878;60.672;2022-09-29T08:52:41;19.55;;;9.77;;
62523;SDS011;53689;56.878;60.672;2022-09-29T08:55:22;19.67;;;9.88;;
62523;SDS011;53689;56.878;60.672;2022-09-29T08:57:57;21.15;;;9.68;;
62523;SDS011;53689;56.878;60.672;2022-09-29T09:00:29;17.17;;;9.57;;
62523;SDS011;53689;56.878;60.672;2022-09-29T09:03:07;15.68;;;9.32;;
62523;SDS011;53689;56.878;60.672;2022-09-29T09:05:48;20.42;;;9.00;;
62523;SDS011;53689;56.878;60.672;2022-09-29T09:08:38;18.38;;;9.18;;
62523;SDS011;53689;56.878;60.672;2022-09-29T09:11:32;16.50;;;9.60;;
62523;SDS011;53689;56.878;60.672;2022-09-29T09:14:13;15.40;;;8.35;;
62523;SDS011;53689;56.878;60.672;2022-09-29T09:16:54;20.25;;;8.75;;
62523;SDS011;53689;56.878;60.672;2022-09-29T09:19:35;17.45;;;8.93;;
62523;SDS011;53689;56.878;60.672;2022-09-29T09:22:18;18.77;;;8.48;;
62523;SDS011;53689;56.878;60.672;2022-09-29T09:24:48;20.08;;;8.63;;
62523;SDS011;53689;56.878;60.672;2022-09-29T09:27:23;18.80;;;9.07;;
62523;SDS011;53689;56.878;60.672;2022-09-29T09:29:55;18.45;;;8.88;;
62523;SDS011;53689;56.878;60.672;2022-09-29T09:32:29;17.80;;;8.50;;
62523;SDS011;53689;56.878;60.672;2022-09-29T09:35:00;16.83;;;8.70;;
62523;SDS011;53689;56.878;60.672;2022-09-29T09:40:20;14.65;;;7.97;;
62523;SDS011;53689;56.878;60.672;2022-09-29T09:42:51;18.10;;;9.40;;
62523;SDS011;53689;56.878;60.672;2022-09-29T09:45:30;18.30;;;9.52;;
62523;SDS011;53689;56.878;60.672;2022-09-29T09:48:02;17.88;;;9.32;;
62523;SDS011;53689;56.878;60.672;2022-09-29T09:50:38;18.77;;;8.93;;
62523;SDS011;53689;56.878;60.672;2022-09-29T09:53:10;22.75;;;9.40;;
62523;SDS011;53689;56.878;60.672;2022-09-29T09:55:42;18.52;;;9.90;;
62523;SDS011;53689;56.878;60.672;2022-09-29T10:01:00;24.27;;;10.38;;
62523;SDS011;53689;56.878;60.672;2022-09-29T10:05:57;23.35;;;10.88;;
62523;SDS011;53689;56.878;60.672;2022-09-29T10:08:27;21.42;;;10.35;;
62523;SDS011;53689;56.878;60.672;2022-09-29T10:10:57;20.73;;;10.43;;
62523;SDS011;53689;56.878;60.672;2022-09-29T10:13:26;21.20;;;11.05;;
62523;SDS011;53689;56.878;60.672;2022-09-29T10:15:55;26.77;;;10.47;;
62523;SDS011;53689;56.878;60.672;2022-09-29T10:18:28;21.20;;;10.27;;
62523;SDS011;53689;56.878;60.672;2022-09-29T10:21:02;22.73;;;9.55;;
62523;SDS011;53689;56.878;60.672;2022-09-29T10:23:31;20.58;;;8.77;;
62523;SDS011;53689;56.878;60.672;2022-09-29T10:26:01;22.55;;;8.68;;
62523;SDS011;53689;56.878;60.672;2022-09-29T10:28:41;23.67;;;7.80;;
62523;SDS011;53689;56.878;60.672;2022-09-29T10:31:18;18.73;;;8.75;;
62523;SDS011;53689;56.878;60.672;2022-09-29T10:33:49;21.95;;;9.30;;
62523;SDS011;53689;56.878;60.672;2022-09-29T10:36:20;24.58;;;9.10;;
62523;SDS011;53689;56.878;60.672;2022-09-29T10:38:52;23.48;;;9.85;;
62523;SDS011;53689;56.878;60.672;2022-09-29T10:43:47;17.50;;;8.90;;
62523;SDS011;53689;56.878;60.672;2022-09-29T10:46:35;17.48;;;9.48;;
62523;SDS011;53689;56.878;60.672;2022-09-29T10:49:07;18.88;;;10.02;;
62523;SDS011;53689;56.878;60.672;2022-09-29T10:51:39;21.08;;;10.73;;
62523;SDS011;53689;56.878;60.672;2022-09-29T10:54:09;23.38;;;10.70;;
62523;SDS011;53689;56.878;60.672;2022-09-29T10:56:45;21.52;;;10.60;;
62523;SDS011;53689;56.878;60.672;2022-09-29T10:59:14;22.95;;;11.18;;
62523;SDS011;53689;56.878;60.672;2022-09-29T11:01:43;26.45;;;11.85;;
62523;SDS011;53689;56.878;60.672;2022-09-29T11:04:15;20.02;;;9.55;;
62523;SDS011;53689;56.878;60.672;2022-09-29T11:06:46;21.25;;;10.25;;
62523;SDS011;53689;56.878;60.672;2022-09-29T11:09:34;23.77;;;11.77;;
62523;SDS011;53689;56.878;60.672;2022-09-29T11:12:04;30.17;;;10.97;;
62523;SDS011;53689;56.878;60.672;2022-09-29T11:14:41;21.58;;;11.93;;
62523;SDS011;53689;56.878;60.672;2022-09-29T11:17:22;27.08;;;11.75;;
62523;SDS011;53689;56.878;60.672;2022-09-29T11:19:51;27.92;;;13.32;;
62523;SDS011;53689;56.878;60.672;2022-09-29T11:25:27;26.75;;;12.10;;
62523;SDS011;53689;56.878;60.672;2022-09-29T11:31:10;31.23;;;14.07;;
62523;SDS011;53689;56.878;60.672;2022-09-29T11:33:53;38.33;;;14.07;;
62523;SDS011;53689;56.878;60.672;2022-09-29T11:39:03;36.67;;;15.25;;
62523;SDS011;53689;56.878;60.672;2022-09-29T11:41:43;29.13;;;13.30;;
62523;SDS011;53689;56.878;60.672;2022-09-29T11:44:34;35.38;;;13.93;;
62523;SDS011;53689;56.878;60.672;2022-09-29T11:47:12;41.03;;;14.70;;
62523;SDS011;53689;56.878;60.672;2022-09-29T11:49:53;33.92;;;14.35;;
62523;SDS011;53689;56.878;60.672;2022-09-29T11:52:40;32.63;;;14.02;;
62523;SDS011;53689;56.878;60.672;2022-09-29T11:55:32;38.88;;;14.88;;
62523;SDS011;53689;56.878;60.672;2022-09-29T12:01:21;36.65;;;13.45;;
62523;SDS011;53689;56.878;60.672;2022-09-29T12:04:02;34.47;;;13.60;;
62523;SDS011;53689;56.878;60.672;2022-09-29T12:06:53;33.17;;;13.48;;
62523;SDS011;53689;56.878;60.672;2022-09-29T12:09:26;37.60;;;14.93;;
62523;SDS011;53689;56.878;60.672;2022-09-29T12:12:08;31.00;;;13.57;;
62523;SDS011;53689;56.878;60.672;2022-09-29T12:14:56;38.58;;;13.70;;
62523;SDS011;53689;56.878;60.672;2022-09-29T12:17:38;29.45;;;14.20;;
62523;SDS011;53689;56.878;60.672;2022-09-29T12:20:13;33.67;;;13.57;;
62523;SDS011;53689;56.878;60.672;2022-09-29T12:22:45;30.67;;;14.75;;
62523;SDS011;53689;56.878;60.672;2022-09-29T12:25:15;32.00;;;13.82;;
62523;SDS011;53689;56.878;60.672;2022-09-29T12:27:44;32.60;;;13.90;;
62523;SDS011;53689;56.878;60.672;2022-09-29T12:30:17;32.47;;;13.43;;
62523;SDS011;53689;56.878;60.672;2022-09-29T12:32:49;34.30;;;13.63;;
62523;SDS011;53689;56.878;60.672;2022-09-29T12:35:22;29.52;;;13.43;;
62523;SDS011;53689;56.878;60.672;2022-09-29T12:37:59;23.85;;;11.32;;
62523;SDS011;53689;56.878;60.672;2022-09-29T12:40:34;23.45;;;11.07;;
62523;SDS011;53689;56.878;60.672;2022-09-29T12:43:07;21.98;;;10.93;;
62523;SDS011;53689;56.878;60.672;2022-09-29T12:45:42;22.83;;;11.27;;
62523;SDS011;53689;56.878;60.672;2022-09-29T12:51:12;27.50;;;10.30;;
62523;SDS011;53689;56.878;60.672;2022-09-29T12:53:49;31.08;;;10.82;;
62523;SDS011;53689;56.878;60.672;2022-09-29T12:56:26;29.80;;;11.45;;
62523;SDS011;53689;56.878;60.672;2022-09-29T12:58:57;31.42;;;11.68;;
62523;SDS011;53689;56.878;60.672;2022-09-29T13:01:31;35.22;;;11.85;;
62523;SDS011;53689;56.878;60.672;2022-09-29T13:07:27;34.42;;;12.98;;
62523;SDS011;53689;56.878;60.672;2022-09-29T13:10:13;34.92;;;14.05;;
62523;SDS011;53689;56.878;60.672;2022-09-29T13:13:18;35.08;;;13.70;;
62523;SDS011;53689;56.878;60.672;2022-09-29T13:16:07;35.67;;;14.13;;
62523;SDS011;53689;56.878;60.672;2022-09-29T13:18:52;35.97;;;14.70;;
62523;SDS011;53689;56.878;60.672;2022-09-29T13:21:53;30.58;;;12.88;;
62523;SDS011;53689;56.878;60.672;2022-09-29T13:24:37;35.42;;;14.07;;
62523;SDS011;53689;56.878;60.672;2022-09-29T13:27:23;31.50;;;13.35;;
62523;SDS011;53689;56.878;60.672;2022-09-29T13:29:55;29.27;;;13.50;;
62523;SDS011;53689;56.878;60.672;2022-09-29T13:32:27;31.80;;;12.88;;
62523;SDS011;53689;56.878;60.672;2022-09-29T13:34:59;30.13;;;12.60;;
62523;SDS011;53689;56.878;60.672;2022-09-29T13:37:34;28.25;;;13.55;;
62523;SDS011;53689;56.878;60.672;2022-09-29T13:40:15;29.10;;;12.48;;
62523;SDS011;53689;56.878;60.672;2022-09-29T13:42:50;29.55;;;12.52;;
62523;SDS011;53689;56.878;60.672;2022-09-29T13:48:33;27.48;;;11.98;;
62523;SDS011;53689;56.878;60.672;2022-09-29T13:51:25;33.15;;;13.00;;
62523;SDS011;53689;56.878;60.672;2022-09-29T13:54:13;29.77;;;12.55;;
62523;SDS011;53689;56.878;60.672;2022-09-29T13:56:48;26.90;;;12.25;;
62523;SDS011;53689;56.878;60.672;2022-09-29T13:59:22;27.85;;;12.38;;
62523;SDS011;53689;56.878;60.672;2022-09-29T14:01:50;23.98;;;10.93;;
62523;SDS011;53689;56.878;60.672;2022-09-29T14:04:37;22.15;;;11.00;;
62523;SDS011;53689;56.878;60.672;2022-09-29T14:07:12;24.58;;;10.10;;
62523;SDS011;53689;56.878;60.672;2022-09-29T14:10:03;20.40;;;10.07;;
62523;SDS011;53689;56.878;60.672;2022-09-29T14:12:41;27.13;;;11.32;;
62523;SDS011;53689;56.878;60.672;2022-09-29T14:15:15;20.60;;;10.57;;
62523;SDS011;53689;56.878;60.672;2022-09-29T14:17:45;24.15;;;10.82;;
62523;SDS011;53689;56.878;60.672;2022-09-29T14:20:18;20.55;;;10.80;;
62523;SDS011;53689;56.878;60.672;2022-09-29T14:22:52;23.63;;;10.25;;
62523;SDS011;53689;56.878;60.672;2022-09-29T14:28:16;26.27;;;11.02;;
62523;SDS011;53689;56.878;60.672;2022-09-29T14:30:47;19.98;;;10.18;;
62523;SDS011;53689;56.878;60.672;2022-09-29T14:33:18;24.15;;;11.13;;
62523;SDS011;53689;56.878;60.672;2022-09-29T14:35:52;20.35;;;9.93;;
62523;SDS011;53689;56.878;60.672;2022-09-29T14:38:29;23.23;;;10.95;;
62523;SDS011;53689;56.878;60.672;2022-09-29T14:41:00;21.65;;;11.10;;
62523;SDS011;53689;56.878;60.672;2022-09-29T14:43:34;21.15;;;10.35;;
62523;SDS011;53689;56.878;60.672;2022-09-29T14:51:58;22.48;;;10.82;;
62523;SDS011;53689;56.878;60.672;2022-09-29T14:54:35;21.30;;;11.63;;
62523;SDS011;53689;56.878;60.672;2022-09-29T14:57:14;25.23;;;10.93;;
62523;SDS011;53689;56.878;60.672;2022-09-29T14:59:57;24.08;;;10.57;;
62523;SDS011;53689;56.878;60.672;2022-09-29T15:02:31;22.98;;;12.00;;
62523;SDS011;53689;56.878;60.672;2022-09-29T15:05:08;18.35;;;10.43;;
62523;SDS011;53689;56.878;60.672;2022-09-29T15:07:39;23.40;;;10.82;;
62523;SDS011;53689;56.878;60.672;2022-09-29T15:10:20;21.33;;;11.05;;
62523;SDS011;53689;56.878;60.672;2022-09-29T15:12:50;19.67;;;10.52;;
62523;SDS011;53689;56.878;60.672;2022-09-29T15:15:34;21.63;;;9.82;;
62523;SDS011;53689;56.878;60.672;2022-09-29T15:18:05;20.65;;;10.70;;
62523;SDS011;53689;56.878;60.672;2022-09-29T15:20:50;18.40;;;9.65;;
62523;SDS011;53689;56.878;60.672;2022-09-29T15:26:30;18.50;;;9.85;;
62523;SDS011;53689;56.878;60.672;2022-09-29T15:28:59;23.52;;;10.32;;
62523;SDS011;53689;56.878;60.672;2022-09-29T15:31:27;19.60;;;9.75;;
62523;SDS011;53689;56.878;60.672;2022-09-29T15:33:57;20.60;;;10.77;;
62523;SDS011;53689;56.878;60.672;2022-09-29T15:36:25;18.27;;;10.13;;
62523;SDS011;53689;56.878;60.672;2022-09-29T15:38:59;20.52;;;10.52;;
62523;SDS011;53689;56.878;60.672;2022-09-29T15:41:32;22.17;;;11.02;;
62523;SDS011;53689;56.878;60.672;2022-09-29T15:44:02;21.45;;;10.90;;
62523;SDS011;53689;56.878;60.672;2022-09-29T15:46:37;20.25;;;10.77;;
62523;SDS011;53689;56.878;60.672;2022-09-29T15:49:11;18.00;;;10.43;;
62523;SDS011;53689;56.878;60.672;2022-09-29T15:51:41;20.25;;;10.55;;